sensor_id;sensor_type;location;lat;lon;timestamp;temperature;humidity
64034;SHT31;50280;49.864;8.638;2022-12-20T00:01:37;1.49;94.30
64034;SHT31;50280;49.864;8.638;2022-12-20T00:04:10;1.52;94.32
64034;SHT31;50280;49.864;8.638;2022-12-20T00:06:42;1.53;94.22
64034;SHT31;50280;49.864;8.638;2022-12-20T00:09:15;1.52;94.22
64034;SHT31;50280;49.864;8.638;2022-12-20T00:11:47;1.53;94.19
64034;SHT31;50280;49.864;8.638;2022-12-20T00:14:19;1.50;94.20
64034;SHT31;50280;49.864;8.638;2022-12-20T00:16:51;1.53;94.20
64034;SHT31;50280;49.864;8.638;2022-12-20T00:19:23;1.54;94.22
64034;SHT31;50280;49.864;8.638;2022-12-20T00:21:55;1.56;94.30
64034;SHT31;50280;49.864;8.638;2022-12-20T00:24:29;1.57;94.36
64034;SHT31;50280;49.864;8.638;2022-12-20T00:27:01;1.56;94.39
64034;SHT31;50280;49.864;8.638;2022-12-20T00:29:33;1.54;94.38
64034;SHT31;50280;49.864;8.638;2022-12-20T00:32:05;1.59;94.36
64034;SHT31;50280;49.864;8.638;2022-12-20T00:34:37;1.59;94.35
64034;SHT31;50280;49.864;8.638;2022-12-20T00:37:09;1.57;94.36
64034;SHT31;50280;49.864;8.638;2022-12-20T00:39:43;1.56;94.30
64034;SHT31;50280;49.864;8.638;2022-12-20T00:42:15;1.62;94.30
64034;SHT31;50280;49.864;8.638;2022-12-20T00:44:47;1.59;94.34
64034;SHT31;50280;49.864;8.638;2022-12-20T00:47:19;1.59;94.35
64034;SHT31;50280;49.864;8.638;2022-12-20T00:49:51;1.60;94.37
64034;SHT31;50280;49.864;8.638;2022-12-20T00:52:23;1.62;94.47
64034;SHT31;50280;49.864;8.638;2022-12-20T00:54:56;1.64;94.46
64034;SHT31;50280;49.864;8.638;2022-12-20T00:57:28;1.64;94.47
64034;SHT31;50280;49.864;8.638;2022-12-20T01:00:00;1.64;94.43
64034;SHT31;50280;49.864;8.638;2022-12-20T01:02:32;1.63;94.42
64034;SHT31;50280;49.864;8.638;2022-12-20T01:05:04;1.62;94.38
64034;SHT31;50280;49.864;8.638;2022-12-20T01:07:37;1.63;94.34
64034;SHT31;50280;49.864;8.638;2022-12-20T01:10:11;1.62;94.34
64034;SHT31;50280;49.864;8.638;2022-12-20T01:12:43;1.59;94.33
64034;SHT31;50280;49.864;8.638;2022-12-20T01:15:15;1.57;94.23
64034;SHT31;50280;49.864;8.638;2022-12-20T01:17:47;1.59;94.49
64034;SHT31;50280;49.864;8.638;2022-12-20T01:20:20;1.62;94.57
64034;SHT31;50280;49.864;8.638;2022-12-20T01:22:52;1.60;94.56
64034;SHT31;50280;49.864;8.638;2022-12-20T01:25:25;1.59;94.60
64034;SHT31;50280;49.864;8.638;2022-12-20T01:27:57;1.59;94.64
64034;SHT31;50280;49.864;8.638;2022-12-20T01:30:29;1.60;94.74
64034;SHT31;50280;49.864;8.638;2022-12-20T01:33:01;1.63;94.78
64034;SHT31;50280;49.864;8.638;2022-12-20T01:35:33;1.64;94.89
64034;SHT31;50280;49.864;8.638;2022-12-20T01:38:05;1.63;94.79
64034;SHT31;50280;49.864;8.638;2022-12-20T01:40:39;1.67;94.80
64034;SHT31;50280;49.864;8.638;2022-12-20T01:43:11;1.64;94.84
64034;SHT31;50280;49.864;8.638;2022-12-20T01:45:46;1.67;94.86
64034;SHT31;50280;49.864;8.638;2022-12-20T01:48:20;1.67;94.81
64034;SHT31;50280;49.864;8.638;2022-12-20T01:50:56;1.67;94.72
64034;SHT31;50280;49.864;8.638;2022-12-20T01:53:28;1.67;94.74
64034;SHT31;50280;49.864;8.638;2022-12-20T01:56:03;1.68;94.70
64034;SHT31;50280;49.864;8.638;2022-12-20T01:58:39;1.68;94.60
64034;SHT31;50280;49.864;8.638;2022-12-20T02:01:12;1.67;94.56
64034;SHT31;50280;49.864;8.638;2022-12-20T02:03:45;1.66;94.52
64034;SHT31;50280;49.864;8.638;2022-12-20T02:06:18;1.64;94.51
64034;SHT31;50280;49.864;8.638;2022-12-20T02:08:54;1.66;94.50
64034;SHT31;50280;49.864;8.638;2022-12-20T02:11:36;1.67;94.49
64034;SHT31;50280;49.864;8.638;2022-12-20T02:14:31;1.71;94.51
64034;SHT31;50280;49.864;8.638;2022-12-20T02:17:24;1.73;94.49
64034;SHT31;50280;49.864;8.638;2022-12-20T02:23:37;1.78;94.29
64034;SHT31;50280;49.864;8.638;2022-12-20T02:26:54;1.78;94.08
64034;SHT31;50280;49.864;8.638;2022-12-20T02:30:04;1.75;93.96
64034;SHT31;50280;49.864;8.638;2022-12-20T02:32:42;1.71;93.85
64034;SHT31;50280;49.864;8.638;2022-12-20T02:35:23;1.75;93.81
64034;SHT31;50280;49.864;8.638;2022-12-20T02:37:59;1.75;93.76
64034;SHT31;50280;49.864;8.638;2022-12-20T02:40:35;1.74;93.72
64034;SHT31;50280;49.864;8.638;2022-12-20T02:43:13;1.73;93.72
64034;SHT31;50280;49.864;8.638;2022-12-20T02:45:47;1.73;93.71
64034;SHT31;50280;49.864;8.638;2022-12-20T02:48:19;1.73;93.72
64034;SHT31;50280;49.864;8.638;2022-12-20T02:50:55;1.73;93.77
64034;SHT31;50280;49.864;8.638;2022-12-20T02:53:31;1.75;93.82
64034;SHT31;50280;49.864;8.638;2022-12-20T02:56:05;1.75;93.83
64034;SHT31;50280;49.864;8.638;2022-12-20T02:58:46;1.75;93.78
64034;SHT31;50280;49.864;8.638;2022-12-20T03:01:25;1.75;93.75
64034;SHT31;50280;49.864;8.638;2022-12-20T03:04:03;1.74;93.69
64034;SHT31;50280;49.864;8.638;2022-12-20T03:06:38;1.74;93.72
64034;SHT31;50280;49.864;8.638;2022-12-20T03:09:26;1.75;93.73
64034;SHT31;50280;49.864;8.638;2022-12-20T03:11:59;1.77;93.76
64034;SHT31;50280;49.864;8.638;2022-12-20T03:14:31;1.75;93.82
64034;SHT31;50280;49.864;8.638;2022-12-20T03:17:05;1.77;93.84
64034;SHT31;50280;49.864;8.638;2022-12-20T03:19:38;1.77;93.85
64034;SHT31;50280;49.864;8.638;2022-12-20T03:22:10;1.77;93.88
64034;SHT31;50280;49.864;8.638;2022-12-20T03:24:42;1.77;93.94
64034;SHT31;50280;49.864;8.638;2022-12-20T03:27:14;1.77;93.99
64034;SHT31;50280;49.864;8.638;2022-12-20T03:29:46;1.77;93.99
64034;SHT31;50280;49.864;8.638;2022-12-20T03:32:20;1.80;93.97
64034;SHT31;50280;49.864;8.638;2022-12-20T03:34:53;1.78;94.03
64034;SHT31;50280;49.864;8.638;2022-12-20T03:37:25;1.80;94.01
64034;SHT31;50280;49.864;8.638;2022-12-20T03:39:57;1.81;94.07
64034;SHT31;50280;49.864;8.638;2022-12-20T03:42:29;1.84;94.07
64034;SHT31;50280;49.864;8.638;2022-12-20T03:45:01;1.85;94.04
64034;SHT31;50280;49.864;8.638;2022-12-20T03:47:35;1.84;94.09
64034;SHT31;50280;49.864;8.638;2022-12-20T03:50:08;1.87;94.08
64034;SHT31;50280;49.864;8.638;2022-12-20T03:52:41;1.87;94.12
64034;SHT31;50280;49.864;8.638;2022-12-20T03:55:13;1.85;94.09
64034;SHT31;50280;49.864;8.638;2022-12-20T03:57:45;1.87;94.06
64034;SHT31;50280;49.864;8.638;2022-12-20T04:00:17;1.88;94.10
64034;SHT31;50280;49.864;8.638;2022-12-20T04:02:51;1.88;94.11
64034;SHT31;50280;49.864;8.638;2022-12-20T04:05:23;1.91;94.11
64034;SHT31;50280;49.864;8.638;2022-12-20T04:07:55;1.90;93.99
64034;SHT31;50280;49.864;8.638;2022-12-20T04:10:27;1.90;93.97
64034;SHT31;50280;49.864;8.638;2022-12-20T04:12:59;1.93;93.92
64034;SHT31;50280;49.864;8.638;2022-12-20T04:15:31;1.91;93.85
64034;SHT31;50280;49.864;8.638;2022-12-20T04:18:05;1.93;93.79
64034;SHT31;50280;49.864;8.638;2022-12-20T04:20:37;1.93;93.76
64034;SHT31;50280;49.864;8.638;2022-12-20T04:23:09;1.93;93.72
64034;SHT31;50280;49.864;8.638;2022-12-20T04:25:41;1.94;93.76
64034;SHT31;50280;49.864;8.638;2022-12-20T04:28:13;1.91;93.74
64034;SHT31;50280;49.864;8.638;2022-12-20T04:30:45;1.94;93.77
64034;SHT31;50280;49.864;8.638;2022-12-20T04:33:18;1.91;93.72
64034;SHT31;50280;49.864;8.638;2022-12-20T04:35:50;1.90;93.71
64034;SHT31;50280;49.864;8.638;2022-12-20T04:38:23;1.95;93.64
64034;SHT31;50280;49.864;8.638;2022-12-20T04:40:55;1.91;93.66
64034;SHT31;50280;49.864;8.638;2022-12-20T04:43:27;1.94;93.68
64034;SHT31;50280;49.864;8.638;2022-12-20T04:46:00;1.94;93.61
64034;SHT31;50280;49.864;8.638;2022-12-20T04:48:33;1.93;93.58
64034;SHT31;50280;49.864;8.638;2022-12-20T04:51:05;1.91;93.55
64034;SHT31;50280;49.864;8.638;2022-12-20T04:53:37;1.93;93.53
64034;SHT31;50280;49.864;8.638;2022-12-20T04:56:09;1.90;93.47
64034;SHT31;50280;49.864;8.638;2022-12-20T04:58:41;1.90;93.46
64034;SHT31;50280;49.864;8.638;2022-12-20T05:01:13;1.91;93.50
64034;SHT31;50280;49.864;8.638;2022-12-20T05:03:47;1.93;93.53
64034;SHT31;50280;49.864;8.638;2022-12-20T05:06:19;1.90;93.51
64034;SHT31;50280;49.864;8.638;2022-12-20T05:08:51;1.91;93.59
64034;SHT31;50280;49.864;8.638;2022-12-20T05:11:23;1.91;93.66
64034;SHT31;50280;49.864;8.638;2022-12-20T05:13:55;1.93;93.83
64034;SHT31;50280;49.864;8.638;2022-12-20T05:16:27;1.94;93.89
64034;SHT31;50280;49.864;8.638;2022-12-20T05:19:01;1.94;93.87
64034;SHT31;50280;49.864;8.638;2022-12-20T05:21:33;1.95;93.79
64034;SHT31;50280;49.864;8.638;2022-12-20T05:24:05;1.95;93.76
64034;SHT31;50280;49.864;8.638;2022-12-20T05:26:40;1.95;93.79
64034;SHT31;50280;49.864;8.638;2022-12-20T05:29:12;1.94;93.77
64034;SHT31;50280;49.864;8.638;2022-12-20T05:31:44;1.97;93.78
64034;SHT31;50280;49.864;8.638;2022-12-20T05:34:17;1.95;93.78
64034;SHT31;50280;49.864;8.638;2022-12-20T05:36:50;1.97;93.86
64034;SHT31;50280;49.864;8.638;2022-12-20T05:39:22;1.99;93.87
64034;SHT31;50280;49.864;8.638;2022-12-20T05:41:54;1.99;93.89
64034;SHT31;50280;49.864;8.638;2022-12-20T05:44:26;2.02;93.95
64034;SHT31;50280;49.864;8.638;2022-12-20T05:46:58;2.02;93.96
64034;SHT31;50280;49.864;8.638;2022-12-20T05:49:31;2.02;93.95
64034;SHT31;50280;49.864;8.638;2022-12-20T05:52:03;2.05;94.05
64034;SHT31;50280;49.864;8.638;2022-12-20T05:54:35;2.07;94.11
64034;SHT31;50280;49.864;8.638;2022-12-20T05:57:07;2.09;94.12
64034;SHT31;50280;49.864;8.638;2022-12-20T05:59:39;2.11;94.13
64034;SHT31;50280;49.864;8.638;2022-12-20T06:02:12;2.14;94.21
64034;SHT31;50280;49.864;8.638;2022-12-20T06:04:48;2.17;94.21
64034;SHT31;50280;49.864;8.638;2022-12-20T06:07:20;2.15;94.12
64034;SHT31;50280;49.864;8.638;2022-12-20T06:09:52;2.18;94.13
64034;SHT31;50280;49.864;8.638;2022-12-20T06:12:24;2.18;94.05
64034;SHT31;50280;49.864;8.638;2022-12-20T06:14:56;2.17;94.07
64034;SHT31;50280;49.864;8.638;2022-12-20T06:17:28;2.18;94.01
64034;SHT31;50280;49.864;8.638;2022-12-20T06:20:02;2.18;94.00
64034;SHT31;50280;49.864;8.638;2022-12-20T06:22:35;2.18;93.93
64034;SHT31;50280;49.864;8.638;2022-12-20T06:25:08;2.21;93.95
64034;SHT31;50280;49.864;8.638;2022-12-20T06:27:40;2.19;93.93
64034;SHT31;50280;49.864;8.638;2022-12-20T06:30:13;2.19;93.98
64034;SHT31;50280;49.864;8.638;2022-12-20T06:32:46;2.19;93.99
64034;SHT31;50280;49.864;8.638;2022-12-20T06:35:20;2.21;94.06
64034;SHT31;50280;49.864;8.638;2022-12-20T06:37:51;2.22;94.12
64034;SHT31;50280;49.864;8.638;2022-12-20T06:40:24;2.22;94.11
64034;SHT31;50280;49.864;8.638;2022-12-20T06:42:56;2.22;94.13
64034;SHT31;50280;49.864;8.638;2022-12-20T06:45:28;2.24;94.19
64034;SHT31;50280;49.864;8.638;2022-12-20T06:48:00;2.24;94.17
64034;SHT31;50280;49.864;8.638;2022-12-20T06:50:33;2.25;94.17
64034;SHT31;50280;49.864;8.638;2022-12-20T06:53:05;2.26;94.22
64034;SHT31;50280;49.864;8.638;2022-12-20T06:55:38;2.26;94.13
64034;SHT31;50280;49.864;8.638;2022-12-20T06:58:10;2.25;94.12
64034;SHT31;50280;49.864;8.638;2022-12-20T07:00:42;2.26;94.28
64034;SHT31;50280;49.864;8.638;2022-12-20T07:03:14;2.33;94.37
64034;SHT31;50280;49.864;8.638;2022-12-20T07:05:51;2.32;94.40
64034;SHT31;50280;49.864;8.638;2022-12-20T07:08:24;2.36;94.39
64034;SHT31;50280;49.864;8.638;2022-12-20T07:11:02;2.42;94.33
64034;SHT31;50280;49.864;8.638;2022-12-20T07:13:35;2.42;94.25
64034;SHT31;50280;49.864;8.638;2022-12-20T07:16:07;2.40;94.28
64034;SHT31;50280;49.864;8.638;2022-12-20T07:18:39;2.42;94.19
64034;SHT31;50280;49.864;8.638;2022-12-20T07:21:13;2.43;94.13
64034;SHT31;50280;49.864;8.638;2022-12-20T07:23:45;2.43;94.12
64034;SHT31;50280;49.864;8.638;2022-12-20T07:26:17;2.46;94.12
64034;SHT31;50280;49.864;8.638;2022-12-20T07:28:49;2.46;94.09
64034;SHT31;50280;49.864;8.638;2022-12-20T07:31:21;2.43;94.02
64034;SHT31;50280;49.864;8.638;2022-12-20T07:33:53;2.47;93.90
64034;SHT31;50280;49.864;8.638;2022-12-20T07:36:27;2.47;93.86
64034;SHT31;50280;49.864;8.638;2022-12-20T07:38:59;2.49;93.85
64034;SHT31;50280;49.864;8.638;2022-12-20T07:41:31;2.50;93.84
64034;SHT31;50280;49.864;8.638;2022-12-20T07:44:06;2.54;93.93
64034;SHT31;50280;49.864;8.638;2022-12-20T07:46:38;2.57;93.91
64034;SHT31;50280;49.864;8.638;2022-12-20T07:49:10;2.57;93.96
64034;SHT31;50280;49.864;8.638;2022-12-20T07:51:44;2.58;93.89
64034;SHT31;50280;49.864;8.638;2022-12-20T07:54:21;2.60;93.92
64034;SHT31;50280;49.864;8.638;2022-12-20T07:57:02;2.60;93.96
64034;SHT31;50280;49.864;8.638;2022-12-20T07:59:43;2.63;93.96
64034;SHT31;50280;49.864;8.638;2022-12-20T08:02:22;2.64;93.94
64034;SHT31;50280;49.864;8.638;2022-12-20T08:04:59;2.67;93.97
64034;SHT31;50280;49.864;8.638;2022-12-20T08:07:35;2.65;93.99
64034;SHT31;50280;49.864;8.638;2022-12-20T08:10:11;2.64;93.99
64034;SHT31;50280;49.864;8.638;2022-12-20T08:12:47;2.67;93.89
64034;SHT31;50280;49.864;8.638;2022-12-20T08:15:20;2.63;93.84
64034;SHT31;50280;49.864;8.638;2022-12-20T08:17:53;2.63;93.74
64034;SHT31;50280;49.864;8.638;2022-12-20T08:20:25;2.64;93.79
64034;SHT31;50280;49.864;8.638;2022-12-20T08:22:59;2.64;93.77
64034;SHT31;50280;49.864;8.638;2022-12-20T08:25:34;2.60;93.83
64034;SHT31;50280;49.864;8.638;2022-12-20T08:28:06;2.61;93.93
64034;SHT31;50280;49.864;8.638;2022-12-20T08:30:38;2.68;94.09
64034;SHT31;50280;49.864;8.638;2022-12-20T08:33:10;2.73;94.26
64034;SHT31;50280;49.864;8.638;2022-12-20T08:35:42;2.80;94.33
64034;SHT31;50280;49.864;8.638;2022-12-20T08:38:15;2.87;94.39
64034;SHT31;50280;49.864;8.638;2022-12-20T08:40:47;2.91;94.38
64034;SHT31;50280;49.864;8.638;2022-12-20T08:43:19;2.94;94.45
64034;SHT31;50280;49.864;8.638;2022-12-20T08:45:52;2.97;94.38
64034;SHT31;50280;49.864;8.638;2022-12-20T08:48:24;3.01;94.38
64034;SHT31;50280;49.864;8.638;2022-12-20T08:50:58;3.05;94.44
64034;SHT31;50280;49.864;8.638;2022-12-20T08:53:34;3.09;94.43
64034;SHT31;50280;49.864;8.638;2022-12-20T08:56:07;3.11;94.44
64034;SHT31;50280;49.864;8.638;2022-12-20T08:58:43;3.15;94.37
64034;SHT31;50280;49.864;8.638;2022-12-20T09:01:16;3.18;94.38
64034;SHT31;50280;49.864;8.638;2022-12-20T09:03:51;3.22;94.30
64034;SHT31;50280;49.864;8.638;2022-12-20T09:06:24;3.25;94.29
64034;SHT31;50280;49.864;8.638;2022-12-20T09:08:57;3.30;94.29
64034;SHT31;50280;49.864;8.638;2022-12-20T09:11:30;3.36;94.28
64034;SHT31;50280;49.864;8.638;2022-12-20T09:14:02;3.40;94.23
64034;SHT31;50280;49.864;8.638;2022-12-20T09:16:34;3.47;94.14
64034;SHT31;50280;49.864;8.638;2022-12-20T09:19:09;3.52;93.96
64034;SHT31;50280;49.864;8.638;2022-12-20T09:21:43;3.60;93.91
64034;SHT31;50280;49.864;8.638;2022-12-20T09:24:17;3.67;93.83
64034;SHT31;50280;49.864;8.638;2022-12-20T09:26:49;3.75;93.73
64034;SHT31;50280;49.864;8.638;2022-12-20T09:29:21;3.84;93.56
64034;SHT31;50280;49.864;8.638;2022-12-20T09:31:53;3.92;93.32
64034;SHT31;50280;49.864;8.638;2022-12-20T09:34:25;3.98;93.10
64034;SHT31;50280;49.864;8.638;2022-12-20T09:36:57;4.08;92.81
64034;SHT31;50280;49.864;8.638;2022-12-20T09:39:30;4.15;92.62
64034;SHT31;50280;49.864;8.638;2022-12-20T09:42:05;4.20;92.26
64034;SHT31;50280;49.864;8.638;2022-12-20T09:44:39;4.30;92.02
64034;SHT31;50280;49.864;8.638;2022-12-20T09:47:14;4.37;91.50
64034;SHT31;50280;49.864;8.638;2022-12-20T09:49:54;4.47;91.35
64034;SHT31;50280;49.864;8.638;2022-12-20T09:52:34;4.57;90.94
64034;SHT31;50280;49.864;8.638;2022-12-20T09:55:29;4.68;90.76
64034;SHT31;50280;49.864;8.638;2022-12-20T09:58:19;4.80;90.48
64034;SHT31;50280;49.864;8.638;2022-12-20T10:01:13;4.87;90.19
64034;SHT31;50280;49.864;8.638;2022-12-20T10:03:51;4.95;89.98
64034;SHT31;50280;49.864;8.638;2022-12-20T10:06:28;4.98;89.42
64034;SHT31;50280;49.864;8.638;2022-12-20T10:09:26;5.04;89.36
64034;SHT31;50280;49.864;8.638;2022-12-20T10:12:23;5.09;89.20
64034;SHT31;50280;49.864;8.638;2022-12-20T10:15:15;5.15;89.09
64034;SHT31;50280;49.864;8.638;2022-12-20T10:18:01;5.23;88.77
64034;SHT31;50280;49.864;8.638;2022-12-20T10:20:55;5.29;88.71
64034;SHT31;50280;49.864;8.638;2022-12-20T10:23:36;5.33;88.33
64034;SHT31;50280;49.864;8.638;2022-12-20T10:26:16;5.37;88.31
64034;SHT31;50280;49.864;8.638;2022-12-20T10:28:49;5.39;88.31
64034;SHT31;50280;49.864;8.638;2022-12-20T10:31:22;5.40;88.00
64034;SHT31;50280;49.864;8.638;2022-12-20T10:33:54;5.44;88.06
64034;SHT31;50280;49.864;8.638;2022-12-20T10:36:27;5.43;88.42
64034;SHT31;50280;49.864;8.638;2022-12-20T10:39:02;5.46;88.51
64034;SHT31;50280;49.864;8.638;2022-12-20T10:41:45;5.44;88.37
64034;SHT31;50280;49.864;8.638;2022-12-20T10:44:22;5.47;88.03
64034;SHT31;50280;49.864;8.638;2022-12-20T10:46:59;5.47;87.92
64034;SHT31;50280;49.864;8.638;2022-12-20T10:49:32;5.43;87.77
64034;SHT31;50280;49.864;8.638;2022-12-20T10:52:10;5.42;87.81
64034;SHT31;50280;49.864;8.638;2022-12-20T10:54:44;5.47;87.90
64034;SHT31;50280;49.864;8.638;2022-12-20T10:57:20;5.48;87.79
64034;SHT31;50280;49.864;8.638;2022-12-20T10:59:57;5.51;87.89
64034;SHT31;50280;49.864;8.638;2022-12-20T11:02:33;5.53;87.80
64034;SHT31;50280;49.864;8.638;2022-12-20T11:05:21;5.57;87.57
64034;SHT31;50280;49.864;8.638;2022-12-20T11:07:55;5.64;87.30
64034;SHT31;50280;49.864;8.638;2022-12-20T11:10:30;5.68;87.45
64034;SHT31;50280;49.864;8.638;2022-12-20T11:13:02;5.74;87.07
64034;SHT31;50280;49.864;8.638;2022-12-20T11:15:36;5.81;86.88
64034;SHT31;50280;49.864;8.638;2022-12-20T11:18:22;5.88;86.85
64034;SHT31;50280;49.864;8.638;2022-12-20T11:21:14;5.91;86.67
64034;SHT31;50280;49.864;8.638;2022-12-20T11:24:05;5.94;86.28
64034;SHT31;50280;49.864;8.638;2022-12-20T11:26:49;5.99;86.27
64034;SHT31;50280;49.864;8.638;2022-12-20T11:29:43;6.02;85.97
64034;SHT31;50280;49.864;8.638;2022-12-20T11:35:57;6.10;86.22
64034;SHT31;50280;49.864;8.638;2022-12-20T11:38:39;6.09;86.34
64034;SHT31;50280;49.864;8.638;2022-12-20T11:41:17;6.09;86.67
64034;SHT31;50280;49.864;8.638;2022-12-20T11:44:05;6.05;87.84
64034;SHT31;50280;49.864;8.638;2022-12-20T11:46:56;6.05;87.82
64034;SHT31;50280;49.864;8.638;2022-12-20T11:50:02;6.05;88.09
64034;SHT31;50280;49.864;8.638;2022-12-20T11:52:50;6.10;86.95
64034;SHT31;50280;49.864;8.638;2022-12-20T11:55:30;6.22;86.40
64034;SHT31;50280;49.864;8.638;2022-12-20T11:58:10;6.33;85.85
64034;SHT31;50280;49.864;8.638;2022-12-20T12:00:50;6.37;85.89
64034;SHT31;50280;49.864;8.638;2022-12-20T12:03:29;6.45;85.63
64034;SHT31;50280;49.864;8.638;2022-12-20T12:06:08;6.45;85.79
64034;SHT31;50280;49.864;8.638;2022-12-20T12:08:52;6.53;86.90
64034;SHT31;50280;49.864;8.638;2022-12-20T12:11:37;6.51;86.70
64034;SHT31;50280;49.864;8.638;2022-12-20T12:14:16;6.54;87.05
64034;SHT31;50280;49.864;8.638;2022-12-20T12:17:06;6.53;87.23
64034;SHT31;50280;49.864;8.638;2022-12-20T12:19:48;6.57;86.40
64034;SHT31;50280;49.864;8.638;2022-12-20T12:22:30;6.63;86.28
64034;SHT31;50280;49.864;8.638;2022-12-20T12:25:07;6.67;86.52
64034;SHT31;50280;49.864;8.638;2022-12-20T12:27:47;6.68;86.29
64034;SHT31;50280;49.864;8.638;2022-12-20T12:30:19;6.72;85.54
64034;SHT31;50280;49.864;8.638;2022-12-20T12:32:53;6.75;85.93
64034;SHT31;50280;49.864;8.638;2022-12-20T12:35:39;6.79;85.38
64034;SHT31;50280;49.864;8.638;2022-12-20T12:39:09;6.81;85.55
64034;SHT31;50280;49.864;8.638;2022-12-20T12:45:24;6.92;85.17
64034;SHT31;50280;49.864;8.638;2022-12-20T12:48:01;6.92;84.66
64034;SHT31;50280;49.864;8.638;2022-12-20T12:50:46;6.89;84.68
64034;SHT31;50280;49.864;8.638;2022-12-20T12:53:25;6.87;84.30
64034;SHT31;50280;49.864;8.638;2022-12-20T12:59:20;6.75;84.53
64034;SHT31;50280;49.864;8.638;2022-12-20T13:02:18;6.68;84.73
64034;SHT31;50280;49.864;8.638;2022-12-20T13:08:08;6.64;85.06
64034;SHT31;50280;49.864;8.638;2022-12-20T13:10:56;6.63;86.53
64034;SHT31;50280;49.864;8.638;2022-12-20T13:13:34;6.58;86.50
64034;SHT31;50280;49.864;8.638;2022-12-20T13:16:10;6.55;85.33
64034;SHT31;50280;49.864;8.638;2022-12-20T13:19:03;6.58;86.19
64034;SHT31;50280;49.864;8.638;2022-12-20T13:21:43;6.58;86.34
64034;SHT31;50280;49.864;8.638;2022-12-20T13:27:26;6.63;86.30
64034;SHT31;50280;49.864;8.638;2022-12-20T13:42:14;6.77;85.29
64034;SHT31;50280;49.864;8.638;2022-12-20T13:45:02;6.78;85.71
64034;SHT31;50280;49.864;8.638;2022-12-20T13:47:39;6.78;85.21
64034;SHT31;50280;49.864;8.638;2022-12-20T13:50:23;6.78;85.38
64034;SHT31;50280;49.864;8.638;2022-12-20T13:53:01;6.77;85.30
64034;SHT31;50280;49.864;8.638;2022-12-20T13:55:36;6.72;85.26
64034;SHT31;50280;49.864;8.638;2022-12-20T13:58:12;6.70;84.99
64034;SHT31;50280;49.864;8.638;2022-12-20T14:00:48;6.65;84.73
64034;SHT31;50280;49.864;8.638;2022-12-20T14:03:24;6.64;85.34
64034;SHT31;50280;49.864;8.638;2022-12-20T14:06:00;6.61;85.17
64034;SHT31;50280;49.864;8.638;2022-12-20T14:08:35;6.57;85.44
64034;SHT31;50280;49.864;8.638;2022-12-20T14:11:13;6.50;86.07
64034;SHT31;50280;49.864;8.638;2022-12-20T14:13:50;6.43;85.85
64034;SHT31;50280;49.864;8.638;2022-12-20T14:16:25;6.34;85.98
64034;SHT31;50280;49.864;8.638;2022-12-20T14:19:02;6.23;86.01
64034;SHT31;50280;49.864;8.638;2022-12-20T14:21:37;6.15;86.74
64034;SHT31;50280;49.864;8.638;2022-12-20T14:24:15;6.09;86.95
64034;SHT31;50280;49.864;8.638;2022-12-20T14:26:51;6.03;87.50
64034;SHT31;50280;49.864;8.638;2022-12-20T14:29:28;5.98;87.57
64034;SHT31;50280;49.864;8.638;2022-12-20T14:32:01;5.94;87.63
64034;SHT31;50280;49.864;8.638;2022-12-20T14:34:35;5.92;87.46
64034;SHT31;50280;49.864;8.638;2022-12-20T14:37:23;5.89;88.04
64034;SHT31;50280;49.864;8.638;2022-12-20T14:40:03;5.94;88.21
64034;SHT31;50280;49.864;8.638;2022-12-20T14:42:50;5.95;88.77
64034;SHT31;50280;49.864;8.638;2022-12-20T14:45:23;5.95;88.40
64034;SHT31;50280;49.864;8.638;2022-12-20T14:47:58;5.96;88.37
64034;SHT31;50280;49.864;8.638;2022-12-20T14:50:37;5.99;88.41
64034;SHT31;50280;49.864;8.638;2022-12-20T14:53:13;5.98;88.26
64034;SHT31;50280;49.864;8.638;2022-12-20T14:55:52;5.98;88.04
64034;SHT31;50280;49.864;8.638;2022-12-20T14:58:26;5.96;88.36
64034;SHT31;50280;49.864;8.638;2022-12-20T15:01:01;5.96;88.82
64034;SHT31;50280;49.864;8.638;2022-12-20T15:03:49;5.98;88.85
64034;SHT31;50280;49.864;8.638;2022-12-20T15:06:32;5.98;88.42
64034;SHT31;50280;49.864;8.638;2022-12-20T15:09:10;5.95;88.20
64034;SHT31;50280;49.864;8.638;2022-12-20T15:11:42;5.92;88.20
64034;SHT31;50280;49.864;8.638;2022-12-20T15:14:21;5.88;88.35
64034;SHT31;50280;49.864;8.638;2022-12-20T15:17:04;5.89;88.32
64034;SHT31;50280;49.864;8.638;2022-12-20T15:19:43;5.85;88.44
64034;SHT31;50280;49.864;8.638;2022-12-20T15:22:17;5.78;88.90
64034;SHT31;50280;49.864;8.638;2022-12-20T15:24:50;5.77;89.26
64034;SHT31;50280;49.864;8.638;2022-12-20T15:27:22;5.77;89.49
64034;SHT31;50280;49.864;8.638;2022-12-20T15:29:54;5.75;89.55
64034;SHT31;50280;49.864;8.638;2022-12-20T15:32:26;5.75;89.44
64034;SHT31;50280;49.864;8.638;2022-12-20T15:34:58;5.79;89.45
64034;SHT31;50280;49.864;8.638;2022-12-20T15:37:32;5.79;89.31
64034;SHT31;50280;49.864;8.638;2022-12-20T15:40:04;5.85;88.92
64034;SHT31;50280;49.864;8.638;2022-12-20T15:42:38;5.88;89.17
64034;SHT31;50280;49.864;8.638;2022-12-20T15:45:13;5.96;89.02
64034;SHT31;50280;49.864;8.638;2022-12-20T15:47:45;5.99;88.90
64034;SHT31;50280;49.864;8.638;2022-12-20T15:50:17;6.02;88.42
64034;SHT31;50280;49.864;8.638;2022-12-20T15:52:51;6.06;88.21
64034;SHT31;50280;49.864;8.638;2022-12-20T15:55:23;6.06;88.05
64034;SHT31;50280;49.864;8.638;2022-12-20T15:57:55;6.05;88.27
64034;SHT31;50280;49.864;8.638;2022-12-20T16:00:27;6.03;88.05
64034;SHT31;50280;49.864;8.638;2022-12-20T16:02:59;6.02;88.09
64034;SHT31;50280;49.864;8.638;2022-12-20T16:05:32;5.99;88.26
64034;SHT31;50280;49.864;8.638;2022-12-20T16:08:06;5.96;88.32
64034;SHT31;50280;49.864;8.638;2022-12-20T16:10:38;5.95;88.51
64034;SHT31;50280;49.864;8.638;2022-12-20T16:13:12;5.95;88.40
64034;SHT31;50280;49.864;8.638;2022-12-20T16:15:46;5.99;88.12
64034;SHT31;50280;49.864;8.638;2022-12-20T16:18:18;6.06;87.72
64034;SHT31;50280;49.864;8.638;2022-12-20T16:20:50;6.10;87.37
64034;SHT31;50280;49.864;8.638;2022-12-20T16:23:24;6.09;87.03
64034;SHT31;50280;49.864;8.638;2022-12-20T16:25:56;6.09;87.11
64034;SHT31;50280;49.864;8.638;2022-12-20T16:28:28;6.07;87.17
64034;SHT31;50280;49.864;8.638;2022-12-20T16:31:08;6.03;87.26
64034;SHT31;50280;49.864;8.638;2022-12-20T16:33:47;6.02;87.24
64034;SHT31;50280;49.864;8.638;2022-12-20T16:36:19;5.98;87.49
64034;SHT31;50280;49.864;8.638;2022-12-20T16:38:53;5.95;87.77
64034;SHT31;50280;49.864;8.638;2022-12-20T16:41:27;5.94;87.78
64034;SHT31;50280;49.864;8.638;2022-12-20T16:44:02;5.92;87.83
64034;SHT31;50280;49.864;8.638;2022-12-20T16:46:35;5.91;88.02
64034;SHT31;50280;49.864;8.638;2022-12-20T16:49:07;5.91;87.98
64034;SHT31;50280;49.864;8.638;2022-12-20T16:51:42;5.88;88.17
64034;SHT31;50280;49.864;8.638;2022-12-20T16:54:18;5.87;88.21
64034;SHT31;50280;49.864;8.638;2022-12-20T16:56:52;5.85;88.19
64034;SHT31;50280;49.864;8.638;2022-12-20T16:59:24;5.84;88.33
64034;SHT31;50280;49.864;8.638;2022-12-20T17:01:56;5.82;88.42
64034;SHT31;50280;49.864;8.638;2022-12-20T17:04:28;5.81;88.42
64034;SHT31;50280;49.864;8.638;2022-12-20T17:07:00;5.82;88.35
64034;SHT31;50280;49.864;8.638;2022-12-20T17:09:34;5.79;88.44
64034;SHT31;50280;49.864;8.638;2022-12-20T17:12:08;5.78;89.03